Rpc Inc (RES) Latest Bloomsberg Price


Mffais Ranking #112 Overall / #5 Industry
Industry: Oil And Gas Services And Equip

Number of Companies: 131 (Ranking #1322 Overall/#22 Industry)
Inflow: $ 137,155 (K) (Ranking #796 Overall/#14 Industry)
Outflow: $ -51,419 (K)
Mffais Flow: $ 85,735 (K) (Ranking #112 Overall/#5 Industry)


Receive a FREE weekly executive review of stocks moving into the top 10, taking the top industy spot or moving up within their industry. Sent directly to your Inbox every Saturday. Sign up today and get last week's review immediately sent to you.

We value and respect your privacy. Please read our Terms and Conditions which states our firm commitment to your privacy. Your email address will not be shared with a third party, nor will it be sold or used for purposes other than subscription for the weekly review.

Owner CPOR Shares Action Qty Chg Invested (K) Total Current Value (K)
Columbia Wanger Asset Management Llc 2016-09-30 2,171,084 New Holding 2,171,084 $ 30,482 $ 30,482
Pioneer Investment Management Inc 2016-09-30 1,148,001 Added More 873,318 $ 12,261 $ 16,117
Graham Capital Management L P 2016-09-30 768,061 New Holding 768,061 $ 10,783 $ 10,783
Kennedy Capital Management Inc 2016-09-30 679,116 New Holding 679,116 $ 9,534 $ 9,534
Arosa Capital Management Lp 2016-09-30 1,783,054 Added More 676,846 $ 9,502 $ 25,034
Encompass Capital Advisors Llc 2016-09-30 674,107 New Holding 674,107 $ 9,464 $ 9,464
Sir Capital Management L P 2016-09-30 636,135 New Holding 636,135 $ 8,931 $ 8,931
Marshall Wace Llp 2016-09-30 539,905 New Holding 539,905 $ 7,580 $ 7,580
Icon Advisers Inc Co 2016-09-30 467,000 New Holding 467,000 $ 6,556 $ 6,556
Viking Fund Management Llc 2016-09-30 1,280,000 Added More 380,000 $ 5,335 $ 17,971
Bluecrest Capital Management Ltd 2016-09-30 279,152 New Holding 279,152 $ 3,919 $ 3,919
Eagle Boston Investment Management Inc 2016-09-30 260,123 New Holding 260,123 $ 3,652 $ 3,652
Cambiar Investors Llc 2016-09-30 216,889 New Holding 216,889 $ 3,045 $ 3,045
Scout Investments Inc 2016-09-30 1,449,265 Added More 189,991 $ 2,667 $ 20,347
Majedie Asset Management Ltd 2016-09-30 173,114 New Holding 173,114 $ 2,430 $ 2,430
Heartland Advisors Inc 2016-09-30 660,371 Added More 152,159 $ 2,136 $ 9,271
Rr Advisors Llc 2016-09-30 125,000 New Holding 125,000 $ 1,755 $ 1,755
Ashburton Jersey Ltd 2016-09-30 97,000 New Holding 97,000 $ 1,361 $ 1,361
Chicago Equity Partners Llc 2016-09-30 79,950 Added More 53,900 $ 756 $ 1,122
Blue Rock Advisors Llc 2016-09-30 44,040 New Holding 44,040 $ 618 $ 618
Castleark Management Llc 2016-09-30 113,500 Added More 38,900 $ 546 $ 1,593
Moody Aldrich Partners Llc 2016-09-30 93,715 Added More 29,085 $ 408 $ 1,315
Trexquant Investment Lp 2016-09-30 28,454 New Holding 28,454 $ 399 $ 399
Quantitative Investment Management Llc 2016-09-30 40,800 Added More 27,300 $ 383 $ 572
Creative Planning 2016-09-30 27,121 Added More 24,393 $ 342 $ 380
Css Llc Il 2016-09-30 23,832 New Holding 23,832 $ 334 $ 334
First Mercantile Trust Co 2016-09-30 21,780 New Holding 21,780 $ 305 $ 305
Squarepoint Ops Llc 2016-09-30 18,700 New Holding 18,700 $ 262 $ 262
Cubist Systematic Strategies Llc 2016-09-30 33,407 Added More 17,007 $ 238 $ 469
Keybank National Association Oh 2016-09-30 65,368 Added More 14,658 $ 205 $ 917
Cutler Group Lp 2016-09-30 12,887 Added More 12,087 $ 169 $ 180
Mackenzie Financial Corp 2016-09-30 77,907 Added More 9,847 $ 138 $ 1,093
Aperio Group Llc 2016-09-30 52,421 Added More 9,420 $ 132 $ 735
I G Investment Management Ltd 2016-09-30 5,878 New Holding 5,878 $ 82 $ 82
Eqis Capital Management Inc 2016-09-30 31,667 Added More 4,879 $ 68 $ 444
Emerald Acquisition Ltd 2016-09-30 21,718 Added More 4,828 $ 67 $ 304
Parametric Portfolio Associates Llc 2016-09-30 157,625 Added More 4,018 $ 56 $ 2,213
Thrivent Financial For Lutherans 2016-09-30 1,859,500 Added More 3,640 $ 51 $ 26,107
Northern Trust Corp 2016-09-30 429,034 Added More 2,716 $ 38 $ 6,023
Kcg Holdings Inc 2016-09-30 14,317 Added More 2,585 $ 36 $ 201
Blackrock Investment Management Llc 2016-09-30 31,502 Added More 1,724 $ 24 $ 442
Advisory Services Network Llc 2016-09-30 1,833 Added More 1,533 $ 21 $ 25
California State Teachers Retirement System 2016-09-30 127,997 Added More 1,300 $ 18 $ 1,797
Rhumbline Advisers 2016-09-30 47,462 Added More 1,148 $ 16 $ 666
Pacer Advisors Inc 2016-09-30 7,522 Added More 636 $ 8 $ 105
Independent Portfolio Consultants Inc 2016-09-30 12,820 Added More 600 $ 8 $ 179
Zurcher Kantonalbank Zurich Cantonalbank 2016-09-30 2,095 Added More 393 $ 5 $ 29
New York State Teachers Retirement System 2016-09-30 5,200 Added More 300 $ 4 $ 73
Indexiq Advisors Llc 2016-09-30 2,444 Added More 122 $ 1 $ 34
Segall Bryant Hamill Llc 2016-09-30 29,127 Added More 89 $ 1 $ 408
Qs Investors Llc 2016-09-30 65 Added More 46 $ 0 $ 0
Envestnet Asset Management Inc 2016-09-30 5,768 Added More 42 $ 0 $ 80
Fifth Third Bancorp 2016-09-30 164 Added More 7 $ 0 $ 2
Cls Investments Llc 2016-09-30 3 New Holding 3 $ 0 $ 0
Peoples United Financial Inc 2016-09-30 187 No Change 0 $ 0 $ 2
Bronfman E L Rothschild L P 2016-09-30 79 No Change 0 $ 0 $ 1
Proficio Capital Partners Llc 2016-09-30 39 No Change 0 $ 0 $ 0
Ghp Investment Advisors Inc 2016-09-30 30,007 No Change 0 $ 0 $ 421
First Quadrant L P Ca 2016-09-30 3,475 No Change 0 $ 0 $ 48
Teton Advisors Inc 2016-09-30 92,500 No Change 0 $ 0 $ 1,298
Pnc Financial Services Group Inc 2016-09-30 19,052 No Change 0 $ 0 $ 267
Enterprise Financial Services Corp 2016-09-30 98 No Change 0 $ 0 $ 1
Next Financial Group Inc 2016-09-30 190 No Change 0 $ 0 $ 2
State Of Tennessee Treasury Department 2016-09-30 94,200 No Change 0 $ 0 $ 1,322
Advisor Group Inc 2016-09-30 197 No Change 0 $ 0 $ 2
Panagora Asset Management Inc 2016-09-30 11,945 No Change 0 $ 0 $ 167
Nisa Investment Advisors Llc 2016-09-30 22,500 No Change 0 $ 0 $ 315
Legal General Group Plc 2016-09-30 5,576 No Change 0 $ 0 $ 78
Hanson Mcclain Inc 2016-06-30 1,125 No Change 0 $ 0 $ 17
Synovus Financial Corp 2016-09-30 40,000 No Change 0 $ 0 $ 561
Winfield Associates Inc 2016-09-30 170 No Change 0 $ 0 $ 2
Royce Associates Lp 2016-09-30 550,175 No Change 0 $ 0 $ 7,724
Dreman Value Management L L C 2016-09-30 7,650 No Change 0 $ 0 $ 107
Capital Guardian Trust Co 2016-09-30 6,379 No Change 0 $ 0 $ 89
Wfg Advisors Lp 2016-09-30 1 No Change 0 $ 0 $ 0
Mraz Amerine Associates Inc 2016-09-30 403,367 No Change 0 $ 0 $ 5,663
Utah Retirement Systems 2016-09-30 10,560 No Change 0 $ 0 $ 148
Msi Financial Services Inc 2016-09-30 243 Sold Some -1 $ -0 $ 3
Ifp Advisors Inc 2016-09-30 1,129 Sold Some -17 $ -0 $ 15
Thompson Siegel Walmsley Llc 2016-09-30 0 Sold All -53 $ -0 $ 0
Point72 Asia Hong Kong Ltd 2016-09-30 0 Sold All -100 $ -1 $ 0
American International Group Inc 2016-09-30 1,809 Sold Some -142 $ -1 $ 25
Hsbc Holdings Plc 2016-09-30 14,953 Sold Some -669 $ -9 $ 209
Us Bancorp De 2016-09-30 25,527 Sold Some -708 $ -9 $ 358
Rs Investment Management Co Llc 2016-06-30 851,400 Sold Some -760 $ -11 $ 13,222
Acrospire Investment Management Llc 2016-09-30 0 Sold All -900 $ -12 $ 0
Horizon Kinetics Llc 2016-09-30 26,560 Sold Some -1,148 $ -16 $ 372
Nationwide Fund Advisors 2016-09-30 1,522 Sold Some -1,529 $ -21 $ 21
Gratus Capital Llc 2016-09-30 74,285 Sold Some -2,050 $ -28 $ 1,042
Hancock Holding Co 2016-09-30 647,602 Sold Some -2,244 $ -31 $ 9,092
Ladenburg Thalmann Financial Services Inc 2016-09-30 2 Sold Some -2,392 $ -33 $ 0
Energy Opportunities Capital Management Llc 2016-09-30 485,287 Sold Some -2,600 $ -36 $ 6,813
Swiss National Bank 2016-09-30 104,800 Sold Some -3,200 $ -44 $ 1,471
Advisors Asset Management Inc 2016-09-30 23,232 Sold Some -3,360 $ -47 $ 326
Sei Investments Co 2016-09-30 4,818 Sold Some -4,939 $ -69 $ 67
Carnick Kubik Group Llc 2016-09-30 24,550 Sold Some -5,750 $ -80 $ 344
Alphaone Investment Services Llc 2016-09-30 185,021 Sold Some -6,669 $ -93 $ 2,597
Wasatch Advisors Inc 2016-09-30 566,286 Sold Some -6,746 $ -94 $ 7,950
Ngam Advisors L P 2016-09-30 99,670 Sold Some -7,105 $ -99 $ 1,399
Teacher Retirement System Of Texas 2016-09-30 0 Sold All -9,093 $ -127 $ 0
Raymond James Associates 2016-09-30 0 Sold All -10,003 $ -140 $ 0
Invictus Rg 2016-09-30 0 Sold All -10,964 $ -153 $ 0
New York State Common Retirement Fund 2016-09-30 117,300 Sold Some -13,000 $ -182 $ 1,646
Morgan Dempsey Capital Management Llc 2016-09-30 105,293 Sold Some -13,473 $ -189 $ 1,478
Ahl Partners Llp 2016-09-30 34,664 Sold Some -17,467 $ -245 $ 486
Blackrock Japan Co Ltd 2016-09-30 1,782 Sold Some -18,008 $ -252 $ 25
Guggenheim Capital Llc 2016-09-30 148,489 Sold Some -21,033 $ -295 $ 2,084
Dynamic Capital Management Ltd 2016-09-30 75,229 Sold Some -22,403 $ -314 $ 1,056
Lucus Advisors Llc 2016-09-30 0 Sold All -22,660 $ -318 $ 0
Bokf Na 2016-09-30 30,188 Sold Some -26,596 $ -373 $ 423
Cramer Rosenthal Mcglynn Llc 2016-09-30 3,203,567 Sold Some -30,803 $ -432 $ 44,978
Gabelli Funds Llc 2016-09-30 3,078,000 Sold Some -35,000 $ -491 $ 43,215
Sterling Capital Management Llc 2016-09-30 0 Sold All -38,493 $ -540 $ 0
Pacad Investment Ltd 2016-09-30 2,800 Sold Some -46,800 $ -657 $ 39
Walleye Trading Llc 2016-09-30 7,363 Sold Some -47,437 $ -666 $ 103
Peak6 Investments L P 2016-09-30 0 Sold All -50,000 $ -702 $ 0
Capital Fund Management S A 2016-09-30 0 Sold All -75,400 $ -1,058 $ 0
Teachers Advisors Inc 2016-09-30 2,367,025 Sold Some -82,132 $ -1,153 $ 33,233
Springbok Capital Management Llc 2016-09-30 119,500 Sold Some -99,717 $ -1,400 $ 1,677
Blackrock Inc 2016-09-30 19,050 Sold Some -110,568 $ -1,552 $ 267
Geosphere Capital Management 2016-09-30 150,000 Sold Some -115,000 $ -1,614 $ 2,106
Gamco Investors Inc Et Al 2016-09-30 5,065,376 Sold Some -130,275 $ -1,829 $ 71,117
Lombard Odier Asset Management Usa Corp 2016-09-30 0 Sold All -147,751 $ -2,074 $ 0
1492 Capital Management Llc 2016-09-30 0 Sold All -169,091 $ -2,374 $ 0
Pdt Partners Llc 2016-09-30 0 Sold All -205,841 $ -2,890 $ 0
Lord Abbett Co Llc 2016-09-30 77,000 Sold Some -234,769 $ -3,296 $ 1,081
Hussman Strategic Advisors Inc 2016-09-30 400,000 Sold Some -250,000 $ -3,510 $ 5,616
Spot Trading L L C 2016-09-30 0 Sold All -252,600 $ -3,546 $ 0
Brandywine Global Investment Management Llc 2016-09-30 586,262 Sold Some -286,153 $ -4,017 $ 8,231
Granahan Investment Management Inc Ma 2016-09-30 0 Sold All -300,250 $ -4,215 $ 0
Dimensional Fund Advisors Lp 2016-09-30 2,257,763 Sold Some -716,444 $ -10,058 $ 31,698